Time;durP1;ratioP1;P1;durP2;ratioP2;P2;SDS_P1;SDS_P2;PMS_P1;PMS_P2;Temp;Humidity;BMP_temperature;BMP_pressure;BME280_temperature;BME280_humidity;BME280_pressure;Samples;Min_cycle;Max_cycle;Signal;HPM_P1;HPM_P2
2022/11/07 00:00:19;;;;;;;17.90;10.75;;;;;;;10.50;87.18;100214.94;4440484;32;34294;-78
2022/11/07 00:02:48;;;;;;;17.30;9.65;;;;;;;10.74;85.16;100218.78;4440192;32;33840;-75
2022/11/07 00:05:15;;;;;;;16.10;9.48;;;;;;;10.22;87.76;100226.41;4436775;32;33799;-77
2022/11/07 00:07:43;;;;;;;19.02;10.35;;;;;;;10.02;88.50;100223.66;4438593;32;32740;-77
2022/11/07 00:10:14;;;;;;;18.40;10.10;;;;;;;9.59;90.94;100218.72;4443211;32;34355;-76
2022/11/07 00:12:43;;;;;;;16.40;9.82;;;;;;;9.04;94.47;100224.25;4428263;32;34489;-77
2022/11/07 00:15:15;;;;;;;17.60;10.15;;;;;;;9.35;93.88;100230.25;4433958;32;33860;-75
2022/11/07 00:17:44;;;;;;;14.25;9.38;;;;;;;9.53;92.08;100226.13;4437846;32;33844;-77
2022/11/07 00:20:14;;;;;;;16.75;9.57;;;;;;;9.57;92.04;100233.25;4444696;32;33961;-75
2022/11/07 00:22:43;;;;;;;16.73;9.93;;;;;;;9.57;92.30;100237.56;4433914;32;34286;-75
2022/11/07 00:25:11;;;;;;;18.27;9.65;;;;;;;9.43;92.82;100247.13;4439430;32;33743;-78
2022/11/07 00:27:41;;;;;;;19.83;9.95;;;;;;;9.95;90.83;100241.38;4449971;32;32993;-78
2022/11/07 00:30:11;;;;;;;17.42;9.98;;;;;;;9.53;92.59;100245.94;4418718;32;33356;-75
2022/11/07 00:32:39;;;;;;;15.85;9.50;;;;;;;9.67;91.97;100244.13;4437581;32;33786;-77
2022/11/07 00:35:08;;;;;;;17.52;9.98;;;;;;;9.69;91.87;100247.69;4433449;32;34087;-76
2022/11/07 00:37:36;;;;;;;16.55;9.68;;;;;;;9.97;91.00;100255.28;4440456;32;33915;-75
2022/11/07 00:40:05;;;;;;;14.52;8.93;;;;;;;10.20;89.59;100251.34;4444466;32;32654;-76
2022/11/07 00:42:33;;;;;;;15.48;9.13;;;;;;;10.15;89.66;100245.00;4436664;32;35905;-74
2022/11/07 00:45:02;;;;;;;16.33;9.55;;;;;;;10.09;89.87;100242.09;4441933;32;34697;-76
2022/11/07 00:47:32;;;;;;;16.33;9.82;;;;;;;9.96;90.64;100249.19;4437115;32;33088;-75
2022/11/07 00:50:00;;;;;;;19.27;10.40;;;;;;;9.90;91.10;100242.81;4436864;32;33500;-75
2022/11/07 00:52:30;;;;;;;21.62;10.60;;;;;;;10.16;89.58;100241.59;4446126;32;33479;-75
2022/11/07 00:54:58;;;;;;;21.52;11.75;;;;;;;9.60;92.61;100233.44;4419437;32;33124;-75
2022/11/07 00:57:27;;;;;;;18.55;10.60;;;;;;;9.78;91.91;100243.91;4439293;32;33566;-76
2022/11/07 01:00:01;;;;;;;16.87;10.15;;;;;;;9.80;92.76;100238.81;4420956;32;34036;-77
2022/11/07 01:02:31;;;;;;;17.20;9.80;;;;;;;10.13;91.22;100242.34;4439427;32;33722;-75
2022/11/07 01:05:09;;;;;;;17.40;10.27;;;;;;;11.07;86.31;100239.44;4438016;32;34332;-78
2022/11/07 01:07:48;;;;;;;17.80;10.32;;;;;;;11.44;83.78;100240.34;4446247;32;34727;-77
2022/11/07 01:10:18;;;;;;;16.87;9.90;;;;;;;11.31;84.65;100241.44;4441408;32;34094;-75
2022/11/07 01:12:48;;;;;;;16.20;9.70;;;;;;;11.15;84.44;100240.69;4445768;32;34154;-76
2022/11/07 01:15:16;;;;;;;17.15;10.65;;;;;;;10.45;88.68;100250.97;4438213;32;34730;-76
2022/11/07 01:17:46;;;;;;;19.23;10.32;;;;;;;10.56;88.84;100251.50;4438321;32;33767;-75
2022/11/07 01:20:17;;;;;;;18.80;10.90;;;;;;;10.59;88.00;100252.56;4446829;32;34142;-75
2022/11/07 01:22:47;;;;;;;17.62;9.82;;;;;;;11.41;84.71;100241.06;4446689;32;34458;-76
2022/11/07 01:25:15;;;;;;;16.87;10.18;;;;;;;11.67;83.28;100238.84;4414676;32;33465;-76
2022/11/07 01:27:47;;;;;;;17.33;10.05;;;;;;;11.85;82.46;100234.50;4395468;32;34439;-77
2022/11/07 01:30:16;;;;;;;18.12;10.13;;;;;;;11.98;81.63;100236.87;4423437;32;34078;-75
2022/11/07 01:32:44;;;;;;;14.40;8.77;;;;;;;11.89;81.94;100236.47;4412259;32;33658;-76
2022/11/07 01:35:14;;;;;;;18.80;9.85;;;;;;;11.32;84.37;100236.34;4421893;32;33794;-75
2022/11/07 01:37:43;;;;;;;14.87;9.73;;;;;;;10.96;86.11;100240.59;4418718;32;33425;-76
2022/11/07 01:40:13;;;;;;;16.92;9.93;;;;;;;11.00;86.24;100242.53;4411623;32;34930;-76
2022/11/07 01:42:43;;;;;;;14.18;8.95;;;;;;;10.32;90.14;100244.25;4412422;32;33583;-77
2022/11/07 01:45:20;;;;;;;17.75;10.20;;;;;;;10.15;91.64;100255.38;4415222;32;34447;-78
2022/11/07 01:47:50;;;;;;;18.17;9.50;;;;;;;10.33;91.49;100250.31;4416608;32;33534;-76
2022/11/07 01:50:20;;;;;;;16.62;9.27;;;;;;;10.24;91.99;100251.56;4427043;32;34625;-75
2022/11/07 01:52:54;;;;;;;16.25;9.50;;;;;;;10.48;91.02;100258.88;4420204;32;33540;-77
2022/11/07 01:55:29;;;;;;;15.98;9.57;;;;;;;10.48;90.75;100256.28;4416017;32;32565;-75
2022/11/07 01:58:01;;;;;;;16.77;10.10;;;;;;;10.50;91.00;100253.78;4410944;32;34654;-76
2022/11/07 02:00:33;;;;;;;15.25;9.13;;;;;;;10.33;91.45;100251.19;4420632;32;34746;-75
2022/11/07 02:03:08;;;;;;;18.75;9.05;;;;;;;10.62;90.61;100241.47;4420417;32;33382;-76
2022/11/07 02:05:43;;;;;;;18.73;9.25;;;;;;;11.51;85.75;100243.31;4420375;32;34557;-77
2022/11/07 02:08:13;;;;;;;14.90;8.43;;;;;;;11.04;87.64;100249.63;4409920;32;34244;-75
2022/11/07 02:10:42;;;;;;;16.62;9.38;;;;;;;10.84;88.80;100252.94;4413700;32;33015;-75
2022/11/07 02:13:18;;;;;;;16.17;9.32;;;;;;;10.55;90.74;100257.50;4417197;32;34193;-75
2022/11/07 02:15:46;;;;;;;19.00;9.88;;;;;;;10.67;90.81;100255.53;4415129;32;34547;-77
2022/11/07 02:18:16;;;;;;;15.50;8.93;;;;;;;10.79;89.89;100250.09;4418085;32;32596;-78
2022/11/07 02:20:45;;;;;;;15.20;9.05;;;;;;;11.13;88.15;100242.31;4425845;32;33125;-76
2022/11/07 02:23:25;;;;;;;17.00;9.43;;;;;;;11.37;86.01;100246.94;4399658;32;33578;-76
2022/11/07 02:25:55;;;;;;;14.68;8.43;;;;;;;10.78;89.04;100256.12;4425826;32;34783;-76
2022/11/07 02:28:27;;;;;;;15.55;9.02;;;;;;;10.65;90.71;100246.81;4437418;32;33632;-75
2022/11/07 02:30:58;;;;;;;15.45;9.40;;;;;;;10.75;90.12;100246.47;4438133;32;33709;-76
2022/11/07 02:33:28;;;;;;;19.30;9.63;;;;;;;10.80;90.22;100246.72;4438846;32;34290;-76
2022/11/07 02:35:57;;;;;;;19.75;9.27;;;;;;;11.01;89.04;100244.31;4448099;32;33712;-77
2022/11/07 02:38:36;;;;;;;17.62;9.30;;;;;;;10.76;90.39;100242.19;4428897;32;33101;-75
2022/11/07 02:41:08;;;;;;;14.87;9.48;;;;;;;10.78;90.49;100236.25;4433391;32;34106;-74
2022/11/07 02:43:41;;;;;;;25.37;9.95;;;;;;;10.79;90.10;100232.84;4445273;32;33391;-75
2022/11/07 02:46:11;;;;;;;16.87;9.65;;;;;;;10.62;92.01;100238.88;4440530;32;33878;-75
2022/11/07 02:48:42;;;;;;;18.65;9.68;;;;;;;10.50;92.89;100227.88;4445788;32;35622;-75
2022/11/07 02:51:13;;;;;;;17.25;9.15;;;;;;;11.63;86.74;100226.53;4450772;32;34856;-78
2022/11/07 02:53:42;;;;;;;17.45;10.15;;;;;;;10.93;90.17;100228.38;4432876;32;34261;-77
2022/11/07 02:56:11;;;;;;;18.35;9.75;;;;;;;10.78;91.17;100231.06;4451477;32;33675;-75
2022/11/07 02:58:40;;;;;;;17.27;10.38;;;;;;;10.03;96.11;100238.38;4454481;32;33879;-78
2022/11/07 03:01:11;;;;;;;20.52;11.57;;;;;;;9.81;97.84;100235.41;4444654;32;34179;-75
2022/11/07 03:03:45;;;;;;;18.60;11.15;;;;;;;9.87;98.55;100238.34;4432819;32;33911;-75
2022/11/07 03:06:19;;;;;;;23.70;12.52;;;;;;;9.83;99.38;100231.22;4440057;32;34651;-78
2022/11/07 03:08:47;;;;;;;25.83;12.70;;;;;;;9.75;100.00;100232.50;4436760;32;33739;-77
2022/11/07 03:11:20;;;;;;;23.77;13.27;;;;;;;9.76;100.00;100232.59;4448067;32;34785;-77
2022/11/07 03:13:50;;;;;;;25.90;13.57;;;;;;;9.61;100.00;100224.84;4431031;32;33461;-75
2022/11/07 03:16:20;;;;;;;21.67;12.80;;;;;;;9.77;100.00;100236.97;4436581;32;33891;-78
2022/11/07 03:18:48;;;;;;;26.87;13.80;;;;;;;10.32;98.43;100238.19;4439603;32;34591;-77
2022/11/07 03:21:18;;;;;;;26.58;14.50;;;;;;;10.03;99.10;100240.06;4446786;32;34094;-78
2022/11/07 03:23:47;;;;;;;24.15;14.23;;;;;;;9.95;100.00;100238.78;4428385;32;33488;-76
2022/11/07 03:26:16;;;;;;;26.60;14.05;;;;;;;10.05;100.00;100238.44;4442607;32;32383;-76
2022/11/07 03:28:45;;;;;;;24.23;13.90;;;;;;;10.34;98.22;100242.62;4433803;32;34575;-77
2022/11/07 03:31:15;;;;;;;24.20;14.00;;;;;;;10.29;98.53;100241.44;4428326;32;33005;-75
2022/11/07 03:33:44;;;;;;;26.20;13.70;;;;;;;10.60;96.55;100235.31;4447114;32;33398;-74
2022/11/07 03:36:12;;;;;;;25.45;14.65;;;;;;;10.62;96.72;100238.88;4447514;32;33810;-75
2022/11/07 03:38:42;;;;;;;27.67;14.38;;;;;;;10.29;98.91;100249.22;4441834;32;33956;-76
2022/11/07 03:41:15;;;;;;;26.40;14.38;;;;;;;10.70;96.47;100247.03;4438323;32;33896;-74
2022/11/07 03:43:46;;;;;;;28.73;15.13;;;;;;;10.89;95.82;100246.28;4427037;32;34861;-78
2022/11/07 03:46:15;;;;;;;24.02;14.40;;;;;;;11.16;93.57;100239.91;4448421;32;34712;-75
2022/11/07 03:48:44;;;;;;;26.77;14.98;;;;;;;10.40;97.79;100244.66;4449336;32;34464;-77
2022/11/07 03:51:15;;;;;;;27.60;15.30;;;;;;;10.55;97.39;100249.75;4445256;32;33846;-77
2022/11/07 03:53:44;;;;;;;30.98;15.48;;;;;;;10.65;96.92;100244.22;4441576;32;33716;-78
2022/11/07 03:56:13;;;;;;;27.85;15.98;;;;;;;10.98;95.08;100249.34;4440239;32;34009;-75
2022/11/07 03:58:42;;;;;;;35.28;17.85;;;;;;;11.11;94.21;100246.53;4436719;32;33938;-78
2022/11/07 04:01:12;;;;;;;25.15;15.60;;;;;;;10.90;95.28;100250.66;4425202;32;36103;-75
2022/11/07 04:03:41;;;;;;;25.40;14.75;;;;;;;11.19;93.71;100260.78;4434581;32;33492;-77
2022/11/07 04:06:11;;;;;;;25.45;15.88;;;;;;;11.12;94.07;100258.69;4435510;32;34718;-78
2022/11/07 04:08:41;;;;;;;31.08;17.20;;;;;;;11.16;93.58;100260.63;4439541;32;33840;-77
2022/11/07 04:17:17;;;;;;;33.63;18.35;;;;;;;11.29;92.92;100261.22;4425378;32;34095;-75
2022/11/07 04:19:35;;;;;;;35.85;19.37;;;;;;;11.63;91.56;100265.44;4426122;32;34561;-75
2022/11/07 04:22:03;;;;;;;31.10;17.75;;;;;;;12.14;88.70;100268.75;4444605;32;34511;-75
2022/11/07 04:24:32;;;;;;;32.78;18.60;;;;;;;12.52;86.58;100257.50;4437185;32;34560;-75
2022/11/07 04:29:48;;;;;;;22.23;13.52;;;;;;;12.73;84.64;100254.94;4443659;32;34000;-77
2022/11/07 04:32:20;;;;;;;22.20;13.98;;;;;;;12.91;83.54;100256.56;4401691;32;33603;-78
2022/11/07 04:34:51;;;;;;;21.65;11.63;;;;;;;13.06;82.65;100249.41;4447691;32;33654;-75
2022/11/07 04:37:19;;;;;;;22.20;11.35;;;;;;;13.22;81.40;100250.03;4447316;32;33995;-78
2022/11/07 04:39:47;;;;;;;20.27;11.93;;;;;;;13.25;80.48;100252.75;4453310;32;34696;-76
2022/11/07 04:42:15;;;;;;;21.87;11.70;;;;;;;13.05;81.89;100250.22;4439122;32;34385;-75
2022/11/07 04:44:44;;;;;;;22.62;12.20;;;;;;;13.03;81.65;100237.97;4449087;32;32434;-76
2022/11/07 04:47:15;;;;;;;20.95;12.20;;;;;;;13.01;81.71;100226.63;4449674;32;33648;-77
2022/11/07 04:49:45;;;;;;;21.77;12.75;;;;;;;12.79;82.99;100241.31;4445032;32;33542;-75
2022/11/07 04:52:13;;;;;;;21.37;12.77;;;;;;;12.41;84.35;100240.53;4426215;32;34760;-76
2022/11/07 04:54:42;;;;;;;23.33;12.75;;;;;;;12.09;86.25;100249.47;4433503;32;33521;-78
2022/11/07 04:57:12;;;;;;;24.12;14.50;;;;;;;11.70;87.85;100254.56;4445075;32;34647;-75
2022/11/07 04:59:41;;;;;;;22.23;13.80;;;;;;;11.15;92.19;100248.47;4443068;32;33714;-76
2022/11/07 05:02:12;;;;;;;26.75;14.77;;;;;;;10.80;94.43;100250.19;4429313;32;34786;-77
2022/11/07 05:04:41;;;;;;;29.70;16.50;;;;;;;10.98;93.85;100257.13;4440594;32;33414;-77
2022/11/07 05:07:11;;;;;;;32.50;17.87;;;;;;;10.82;94.80;100258.94;4443360;32;34593;-76
2022/11/07 05:09:39;;;;;;;38.92;18.40;;;;;;;10.65;96.63;100254.56;4432338;32;34718;-77
2022/11/07 05:12:09;;;;;;;32.30;18.55;;;;;;;11.10;93.04;100255.13;4432775;32;34062;-77
2022/11/07 05:14:38;;;;;;;31.67;18.58;;;;;;;10.73;96.21;100261.03;4446818;32;33482;-76
2022/11/07 05:17:13;;;;;;;36.58;19.45;;;;;;;11.10;94.65;100260.31;4438327;32;34422;-78
2022/11/07 05:19:44;;;;;;;32.42;18.50;;;;;;;11.73;91.29;100259.91;4433462;32;34714;-77
2022/11/07 05:25:02;;;;;;;30.85;17.05;;;;;;;12.07;87.66;100251.09;4438381;32;32642;-77
2022/11/07 05:27:31;;;;;;;28.85;16.35;;;;;;;11.85;88.98;100259.59;4439022;32;33584;-75
2022/11/07 05:30:00;;;;;;;30.60;16.90;;;;;;;12.26;86.92;100253.72;4429335;32;34896;-78
2022/11/07 05:32:27;;;;;;;34.40;16.42;;;;;;;12.36;86.25;100262.81;4429248;32;33754;-77
2022/11/07 05:34:58;;;;;;;27.70;15.85;;;;;;;12.31;86.43;100259.12;4435598;32;33580;-76
2022/11/07 05:37:27;;;;;;;25.75;14.20;;;;;;;12.69;84.53;100260.84;4433554;32;34566;-75
2022/11/07 05:39:58;;;;;;;23.87;15.27;;;;;;;13.16;81.83;100255.88;4427580;32;33983;-77
2022/11/07 05:42:29;;;;;;;26.62;16.42;;;;;;;13.57;78.24;100272.31;4432789;32;34033;-75
2022/11/07 05:45:00;;;;;;;30.67;16.40;;;;;;;13.58;77.34;100274.09;4430008;32;33796;-75
2022/11/07 05:47:28;;;;;;;33.60;16.40;;;;;;;13.30;78.61;100282.50;4430788;32;32349;-75
2022/11/07 05:50:00;;;;;;;29.30;15.43;;;;;;;12.77;80.83;100280.25;4431966;32;33345;-78
2022/11/07 05:52:31;;;;;;;27.80;14.48;;;;;;;10.90;91.58;100286.94;4428234;32;33606;-76
2022/11/07 05:54:59;;;;;;;25.80;14.43;;;;;;;10.57;95.38;100307.69;4420099;32;32787;-77
2022/11/07 05:57:29;;;;;;;28.08;15.45;;;;;;;10.48;97.13;100312.38;4419118;32;34669;-75
2022/11/07 06:00:02;;;;;;;33.78;15.25;;;;;;;10.26;99.04;100316.38;4446195;32;34680;-76
2022/11/07 06:02:39;;;;;;;29.37;15.65;;;;;;;10.37;98.20;100315.31;4428512;32;34768;-78
2022/11/07 06:05:12;;;;;;;36.10;16.98;;;;;;;10.47;97.62;100311.50;4436088;32;33287;-79
2022/11/07 06:07:41;;;;;;;35.95;16.83;;;;;;;10.34;98.74;100307.34;4443398;32;34644;-77
2022/11/07 06:10:11;;;;;;;37.60;17.62;;;;;;;10.67;96.71;100320.31;4437259;32;33853;-78
2022/11/07 06:12:41;;;;;;;32.95;17.08;;;;;;;10.45;98.54;100328.66;4443946;32;34481;-78
2022/11/07 06:15:11;;;;;;;39.28;18.33;;;;;;;10.32;99.64;100329.69;4442009;32;33467;-75
2022/11/07 06:17:41;;;;;;;43.42;19.50;;;;;;;10.25;100.00;100330.12;4429503;32;33533;-75
2022/11/07 06:20:11;;;;;;;41.47;19.20;;;;;;;10.42;99.36;100326.78;4441502;32;34316;-79
2022/11/07 06:22:41;;;;;;;44.90;18.00;;;;;;;9.93;100.00;100334.44;4440655;32;34209;-78
2022/11/07 06:25:08;;;;;;;40.63;17.62;;;;;;;9.98;100.00;100348.50;4440114;32;33502;-76
2022/11/07 06:27:37;;;;;;;41.95;16.42;;;;;;;10.96;95.51;100346.88;4448386;32;33798;-76
2022/11/07 06:30:09;;;;;;;40.80;17.10;;;;;;;11.24;93.74;100346.56;4434387;32;33632;-79
2022/11/07 06:32:38;;;;;;;39.70;17.98;;;;;;;11.89;89.79;100361.06;4441909;32;34086;-78
2022/11/07 06:35:11;;;;;;;36.50;18.15;;;;;;;11.27;92.71;100371.78;4432199;32;33503;-75
2022/11/07 06:37:40;;;;;;;40.15;19.20;;;;;;;10.85;95.85;100366.16;4440983;32;32722;-75
2022/11/07 06:40:13;;;;;;;44.60;22.35;;;;;;;10.94;96.47;100375.28;4432394;32;32463;-75
2022/11/07 06:42:41;;;;;;;39.47;22.90;;;;;;;11.05;95.86;100375.87;4423859;32;33902;-76
2022/11/07 06:45:12;;;;;;;46.97;26.20;;;;;;;10.93;96.99;100370.03;4427653;32;32201;-78
2022/11/07 06:47:41;;;;;;;50.65;26.70;;;;;;;11.15;95.09;100377.22;4441414;32;33416;-76
2022/11/07 06:50:09;;;;;;;44.05;21.52;;;;;;;11.82;91.74;100377.16;4445437;32;33753;-78
2022/11/07 06:52:39;;;;;;;39.03;19.85;;;;;;;11.44;91.94;100376.13;4426733;32;33989;-77
2022/11/07 06:55:08;;;;;;;44.15;19.55;;;;;;;11.27;93.12;100383.03;4442732;32;33591;-79
2022/11/07 06:57:37;;;;;;;37.40;18.02;;;;;;;11.28;92.40;100379.66;4433198;32;33960;-77
2022/11/07 07:00:09;;;;;;;37.75;16.65;;;;;;;11.50;92.30;100381.59;4427216;32;34370;-76
2022/11/07 07:02:39;;;;;;;37.55;17.02;;;;;;;12.44;86.68;100382.66;4408899;32;33443;-76
2022/11/07 07:05:29;;;;;;;28.70;15.18;;;;;;;12.88;83.30;100381.22;4425775;32;34368;-75
2022/11/07 07:08:02;;;;;;;36.10;16.37;;;;;;;13.01;81.84;100383.53;4435724;32;34732;-76
2022/11/07 07:10:39;;;;;;;34.90;16.12;;;;;;;11.74;88.07;100386.22;4424020;32;33893;-76
2022/11/07 07:13:06;;;;;;;;;;;;;;;12.08;88.02;100388.81;4437437;32;33907;-78
2022/11/07 07:15:36;;;;;;;36.80;15.90;;;;;;;12.88;83.19;100399.41;4426608;32;34281;-78
2022/11/07 07:18:20;;;;;;;34.97;16.20;;;;;;;13.04;81.52;100395.78;4426931;32;33840;-78
2022/11/07 07:20:50;;;;;;;35.97;15.77;;;;;;;13.10;81.09;100398.69;4444464;32;33719;-75
2022/11/07 07:23:19;;;;;;;35.92;15.48;;;;;;;13.42;79.48;100397.47;4426120;32;34023;-78
2022/11/07 07:25:51;;;;;;;35.85;16.25;;;;;;;13.18;80.48;100398.19;4423873;32;34421;-78
2022/11/07 07:28:21;;;;;;;33.92;15.40;;;;;;;11.83;86.92;100391.88;4437405;32;34790;-76
2022/11/07 07:30:50;;;;;;;35.05;15.75;;;;;;;11.88;87.33;100395.59;4438961;32;34771;-77
2022/11/07 07:33:20;;;;;;;32.67;15.38;;;;;;;12.39;85.20;100396.34;4439241;32;33989;-76
2022/11/07 07:35:49;;;;;;;33.88;15.80;;;;;;;13.23;81.91;100406.19;4436821;32;34463;-76
2022/11/07 07:38:18;;;;;;;34.97;15.88;;;;;;;13.80;78.42;100402.53;4438206;32;34050;-75
2022/11/07 07:40:47;;;;;;;28.52;14.60;;;;;;;13.85;77.13;100398.41;4432015;32;34686;-76
2022/11/07 07:43:16;;;;;;;34.17;15.70;;;;;;;13.70;78.37;100396.94;4434129;32;34715;-76
2022/11/07 07:45:46;;;;;;;36.15;15.57;;;;;;;13.01;81.74;100406.06;4434114;32;33898;-77
2022/11/07 07:48:16;;;;;;;30.83;15.82;;;;;;;13.51;80.42;100403.09;4439036;32;33927;-76
2022/11/07 07:50:50;;;;;;;34.17;14.90;;;;;;;12.34;85.15;100403.06;4436255;32;33641;-76
2022/11/07 07:53:20;;;;;;;33.55;14.95;;;;;;;13.67;79.11;100403.72;4436891;32;32803;-77
2022/11/07 07:55:57;;;;;;;29.98;14.93;;;;;;;13.82;78.11;100408.69;4434488;32;34143;-75
2022/11/07 07:58:27;;;;;;;33.78;15.40;;;;;;;12.33;84.00;100406.44;4422963;32;33806;-76
2022/11/07 08:00:57;;;;;;;31.92;16.50;;;;;;;13.11;81.70;100411.72;4436190;32;32880;-74
2022/11/07 08:03:26;;;;;;;31.25;15.68;;;;;;;12.23;86.61;100404.25;4413457;32;34585;-76
2022/11/07 08:06:04;;;;;;;32.60;15.43;;;;;;;12.03;87.51;100404.97;4428127;32;33697;-77
2022/11/07 08:08:33;;;;;;;32.50;16.33;;;;;;;12.35;86.64;100407.41;4427716;32;33720;-77
2022/11/07 08:11:07;;;;;;;34.42;14.52;;;;;;;13.02;83.98;100400.94;4433000;32;34592;-75
2022/11/07 08:13:38;;;;;;;32.90;15.35;;;;;;;12.57;84.55;100406.72;4429414;32;34269;-77
2022/11/07 08:16:09;;;;;;;24.63;13.88;;;;;;;13.27;82.16;100409.78;4449638;32;33666;-73
2022/11/07 08:18:40;;;;;;;31.25;13.80;;;;;;;13.36;80.48;100402.44;4429733;32;33827;-77
2022/11/07 08:21:11;;;;;;;27.40;13.45;;;;;;;13.32;80.32;100405.72;4442317;32;34586;-77
2022/11/07 08:23:41;;;;;;;26.05;13.05;;;;;;;13.59;79.98;100399.94;4433068;32;33331;-76
2022/11/07 08:26:08;;;;;;;27.52;13.50;;;;;;;13.81;79.70;100394.81;4449772;32;34598;-75
2022/11/07 08:28:38;;;;;;;25.92;13.23;;;;;;;12.33;85.82;100401.25;4442462;32;33732;-77
2022/11/07 08:31:13;;;;;;;23.58;12.52;;;;;;;12.30;87.51;100408.00;4441893;32;34441;-75
2022/11/07 08:33:43;;;;;;;24.87;12.95;;;;;;;12.59;85.95;100405.09;4431888;32;33130;-77
2022/11/07 08:36:14;;;;;;;26.17;13.82;;;;;;;12.40;86.40;100407.66;4446509;32;33066;-76
2022/11/07 08:38:43;;;;;;;27.48;13.32;;;;;;;13.69;81.31;100396.87;4434597;32;32498;-74
2022/11/07 08:41:12;;;;;;;29.33;13.82;;;;;;;13.50;80.29;100395.22;4429951;32;33727;-77
2022/11/07 08:43:48;;;;;;;28.12;13.50;;;;;;;11.61;89.80;100406.41;4426825;32;33978;-77
2022/11/07 08:46:17;;;;;;;24.75;13.00;;;;;;;11.72;90.45;100400.84;4422080;32;33623;-76
2022/11/07 08:48:46;;;;;;;25.55;13.23;;;;;;;13.13;83.71;100399.72;4433951;32;34026;-74
2022/11/07 08:51:16;;;;;;;28.48;13.13;;;;;;;13.79;79.27;100399.06;4443290;32;32829;-75
2022/11/07 08:53:45;;;;;;;27.05;13.05;;;;;;;12.96;83.17;100406.75;4446458;32;33973;-74
2022/11/07 08:56:15;;;;;;;26.17;13.07;;;;;;;13.90;79.62;100402.97;4440434;32;33419;-77
2022/11/07 08:58:45;;;;;;;24.20;12.35;;;;;;;13.71;79.28;100400.44;4428425;32;33195;-77
2022/11/07 09:01:14;;;;;;;28.62;12.88;;;;;;;13.49;81.29;100415.16;4431489;32;33709;-75
2022/11/07 09:03:44;;;;;;;25.67;12.30;;;;;;;12.49;85.70;100412.38;4432822;32;33939;-75
2022/11/07 09:06:24;;;;;;;28.38;13.60;;;;;;;12.44;86.63;100412.16;4424754;32;34376;-74
2022/11/07 09:08:55;;;;;;;27.15;13.90;;;;;;;14.09;79.40;100414.16;4428895;32;34640;-76
2022/11/07 09:11:27;;;;;;;26.15;13.70;;;;;;;14.02;78.39;100417.31;4432804;32;32903;-77
2022/11/07 09:13:56;;;;;;;26.58;14.10;;;;;;;14.34;77.21;100414.28;4421258;32;33941;-76
2022/11/07 09:16:27;;;;;;;32.13;14.15;;;;;;;14.53;76.04;100422.84;4425895;32;33474;-74
2022/11/07 09:18:56;;;;;;;30.10;14.70;;;;;;;13.69;80.96;100423.78;4425747;32;33688;-77
2022/11/07 09:21:27;;;;;;;24.05;13.68;;;;;;;13.74;80.08;100422.28;4429282;32;32747;-74
2022/11/07 09:23:57;;;;;;;28.73;13.10;;;;;;;14.39;76.89;100424.00;4429731;32;33900;-74
2022/11/07 09:26:26;;;;;;;29.40;13.90;;;;;;;14.30;77.72;100421.94;4428906;32;33846;-77
2022/11/07 09:29:06;;;;;;;28.92;13.45;;;;;;;14.18;78.09;100424.94;4429275;32;34446;-74
2022/11/07 09:31:39;;;;;;;27.70;13.77;;;;;;;14.36;76.75;100420.44;4435391;32;34551;-74
2022/11/07 09:34:09;;;;;;;29.92;14.35;;;;;;;14.15;77.23;100427.41;4430720;32;32624;-75
2022/11/07 09:36:39;;;;;;;24.70;11.73;;;;;;;13.95;78.41;100422.28;4440452;32;33986;-77
2022/11/07 09:39:08;;;;;;;25.42;13.10;;;;;;;13.32;81.38;100426.53;4439355;32;34573;-75
2022/11/07 09:42:04;;;;;;;27.80;12.75;;;;;;;13.47;81.01;100422.00;4442863;32;32372;-75
2022/11/07 09:45:07;;;;;;;28.38;13.20;;;;;;;13.60;79.65;100427.72;4417102;32;34208;-77
2022/11/07 09:47:39;;;;;;;25.88;13.43;;;;;;;12.20;88.09;100430.06;4421412;32;32360;-76
2022/11/07 09:50:15;;;;;;;25.08;12.00;;;;;;;13.49;81.61;100424.69;4436687;32;33959;-75
2022/11/07 09:53:00;;;;;;;28.92;14.32;;;;;;;13.27;82.37;100422.81;4427219;32;34331;-76
2022/11/07 09:55:41;;;;;;;27.20;13.93;;;;;;;13.27;82.07;100422.81;4425553;32;34987;-75
2022/11/07 09:58:34;;;;;;;24.80;12.70;;;;;;;12.54;86.14;100427.34;4434918;32;34294;-77
2022/11/07 10:01:10;;;;;;;25.85;12.45;;;;;;;13.28;83.73;100419.41;4437941;32;34018;-75
2022/11/07 10:03:42;;;;;;;25.10;11.70;;;;;;;13.84;79.61;100428.75;4429703;32;33791;-75
2022/11/07 10:06:38;;;;;;;26.20;13.15;;;;;;;13.70;79.93;100419.50;4429426;32;34172;-76
2022/11/07 10:09:17;;;;;;;29.25;14.85;;;;;;;12.53;86.90;100422.09;4421062;32;33804;-75
2022/11/07 10:11:45;;;;;;;31.02;14.73;;;;;;;13.42;83.28;100426.09;4435388;32;34735;-76
2022/11/07 10:14:54;;;;;;;22.83;12.02;;;;;;;13.07;84.99;100425.41;4435496;32;34492;-78
2022/11/07 10:17:56;;;;;;;24.02;12.57;;;;;;;13.53;81.63;100422.25;4428982;32;33718;-78
2022/11/07 10:20:41;;;;;;;24.33;11.82;;;;;;;12.18;87.98;100416.09;4425391;32;33785;-76
2022/11/07 10:23:14;;;;;;;23.87;11.65;;;;;;;13.00;84.58;100418.19;4434847;32;32698;-75
2022/11/07 10:25:59;;;;;;;29.42;12.27;;;;;;;13.39;82.55;100406.91;4444181;32;33910;-76
2022/11/07 10:28:30;;;;;;;24.37;11.20;;;;;;;13.34;81.62;100410.16;4450822;32;34834;-78
2022/11/07 10:31:05;;;;;;;24.08;12.23;;;;;;;13.53;81.49;100406.63;4420310;32;33550;-76
2022/11/07 10:33:53;;;;;;;25.02;12.25;;;;;;;13.33;82.90;100402.31;4437341;32;33734;-77
2022/11/07 10:36:29;;;;;;;23.77;12.48;;;;;;;12.96;84.49;100411.03;4437964;32;33335;-77
2022/11/07 10:39:00;;;;;;;24.75;12.40;;;;;;;12.68;86.93;100399.41;4428437;32;33790;-75
2022/11/07 10:41:33;;;;;;;26.50;13.05;;;;;;;12.93;85.97;100405.72;4422727;32;34427;-75
2022/11/07 10:44:09;;;;;;;26.15;13.75;;;;;;;12.53;89.08;100409.97;4442842;32;33679;-75
2022/11/07 10:46:42;;;;;;;25.90;13.52;;;;;;;12.18;90.21;100405.72;4441524;32;33578;-76
2022/11/07 10:49:25;;;;;;;29.63;13.60;;;;;;;11.93;91.73;100408.84;4438545;32;33812;-75
2022/11/07 10:52:09;;;;;;;26.30;13.53;;;;;;;12.17;90.65;100398.75;4431728;32;33518;-77
2022/11/07 10:54:39;;;;;;;22.23;12.13;;;;;;;11.72;92.48;100398.25;4416161;32;34534;-77
2022/11/07 10:57:17;;;;;;;26.33;11.95;;;;;;;13.20;85.05;100390.44;4433095;32;33970;-75
2022/11/07 10:59:55;;;;;;;25.92;12.70;;;;;;;12.18;89.91;100390.13;4446757;32;34620;-76
2022/11/07 11:02:24;;;;;;;23.42;12.13;;;;;;;12.68;87.80;100380.31;4434100;32;33502;-76
2022/11/07 11:04:55;;;;;;;28.23;13.18;;;;;;;12.37;88.71;100379.78;4426252;32;32698;-76
2022/11/07 11:07:26;;;;;;;25.10;13.00;;;;;;;13.55;84.29;100373.75;4431372;32;32731;-77
2022/11/07 11:09:59;;;;;;;25.00;13.60;;;;;;;12.25;88.59;100375.75;4437968;32;34861;-77
2022/11/07 11:12:32;;;;;;;22.23;11.05;;;;;;;12.25;90.61;100371.44;4425427;32;34051;-78
2022/11/07 11:15:25;;;;;;;24.30;12.57;;;;;;;13.67;83.80;100362.09;4413278;32;34719;-78
2022/11/07 11:18:18;;;;;;;24.85;11.15;;;;;;;13.25;85.08;100362.00;4436915;32;33638;-76
2022/11/07 11:21:04;;;;;;;23.77;11.93;;;;;;;11.88;92.07;100368.72;4428747;32;34103;-77
2022/11/07 11:23:40;;;;;;;23.42;12.18;;;;;;;12.09;88.92;100364.62;4441864;32;33911;-75
2022/11/07 11:26:44;;;;;;;26.40;13.23;;;;;;;13.05;86.16;100364.66;4441740;32;32864;-77
2022/11/07 11:29:41;;;;;;;23.85;12.37;;;;;;;12.17;89.61;100362.41;4422773;32;33618;-76
2022/11/07 11:32:20;;;;;;;25.23;12.98;;;;;;;11.84;91.75;100356.44;4432824;32;33349;-76
2022/11/07 11:34:59;;;;;;;25.55;13.32;;;;;;;11.92;91.17;100361.22;4428263;32;33179;-76
2022/11/07 11:37:28;;;;;;;25.12;12.13;;;;;;;11.79;93.33;100366.59;4429315;32;34602;-77
2022/11/07 11:39:56;;;;;;;25.90;13.80;;;;;;;12.06;92.34;100363.59;4437963;32;33491;-77
2022/11/07 11:42:38;;;;;;;32.03;14.77;;;;;;;12.56;91.08;100352.06;4428863;32;33866;-77
2022/11/07 11:45:20;;;;;;;26.45;13.07;;;;;;;12.86;86.99;100354.25;4427805;32;33818;-76